Terminal Aerodrome Forecast
Issued by NWS Twin Cities, MN

Home | Current Version | Previous Version | Graphics & Text | Print | Product List | Glossary On
Versions: 1 2 3 4 5 6 7 8 9 10 11 12 13
000
FTUS43 KMPX 021120
TAFEAU
TAF
KEAU 021120Z 0212/0312 20004KT P6SM SKC
     FM021600 21011G18KT P6SM FEW060 SCT250
     FM030100 18007KT P6SM SCT060 SCT250=

USA.gov is the U.S. government's official web portal to all federal, state and local government web resources and services.